Time;durP1;ratioP1;P1;durP2;ratioP2;P2;SDS_P1;SDS_P2;PMS_P1;PMS_P2;Temp;Humidity;BMP_temperature;BMP_pressure;BME280_temperature;BME280_humidity;BME280_pressure;Samples;Min_cycle;Max_cycle;Signal;HPM_P1;HPM_P2
2022/01/21 00:00:45;;;;;;;21.60;9.57;;;4.70;99.90;;;;;;5034095;28;20112;-59
2022/01/21 00:03:11;;;;;;;14.82;6.82;;;4.70;99.90;;;;;;5033764;28;20068;-56
2022/01/21 00:05:37;;;;;;;12.38;6.55;;;4.70;99.90;;;;;;5033876;28;20022;-57
2022/01/21 00:08:03;;;;;;;16.50;8.38;;;4.70;99.90;;;;;;5033727;28;20025;-57
2022/01/21 00:10:29;;;;;;;16.05;8.32;;;4.90;99.90;;;;;;5033450;28;20025;-59
2022/01/21 00:12:56;;;;;;;16.67;9.07;;;4.90;99.90;;;;;;5033549;28;20032;-51
2022/01/21 00:15:22;;;;;;;41.35;20.85;;;5.00;99.90;;;;;;5033626;28;20026;-58
2022/01/21 00:17:48;;;;;;;42.28;23.35;;;5.00;99.90;;;;;;5033552;28;20485;-60
2022/01/21 00:31:10;;;;;;;22.00;12.63;;;5.00;99.90;;;;;;5033688;28;19912;-57
2022/01/21 00:33:37;;;;;;;20.58;11.95;;;4.90;96.40;;;;;;5033398;28;20022;-52
2022/01/21 00:36:04;;;;;;;19.70;10.30;;;4.90;98.70;;;;;;5033532;28;20078;-57
2022/01/21 00:38:31;;;;;;;15.82;8.45;;;4.90;97.10;;;;;;5033121;28;20025;-58
2022/01/21 00:40:59;;;;;;;12.32;6.68;;;4.90;99.50;;;;;;5033163;28;20120;-57
2022/01/21 00:43:33;;;;;;;5.13;3.25;;;4.80;94.20;;;;;;5033218;28;20456;-56
2022/01/21 00:46:00;;;;;;;6.72;3.92;;;4.70;84.30;;;;;;5033333;28;20029;-60
2022/01/21 00:48:26;;;;;;;6.32;3.53;;;4.70;89.40;;;;;;5033443;28;20098;-59
2022/01/21 00:50:52;;;;;;;8.73;5.30;;;4.70;93.70;;;;;;5033329;28;20518;-53
2022/01/21 00:53:18;;;;;;;11.05;6.03;;;4.80;99.90;;;;;;5033072;28;20135;-57
2022/01/21 00:55:45;;;;;;;10.75;7.05;;;4.80;99.90;;;;;;5033439;28;20388;-57
2022/01/21 00:58:11;;;;;;;9.40;5.53;;;4.80;99.90;;;;;;5033080;28;20021;-57
2022/01/21 01:00:37;;;;;;;12.40;7.32;;;4.80;99.90;;;;;;5033044;28;20056;-62
2022/01/21 01:03:03;;;;;;;13.05;7.07;;;4.90;99.90;;;;;;5033138;28;20106;-62
2022/01/21 01:05:29;;;;;;;13.85;8.25;;;4.90;99.90;;;;;;5032970;28;20073;-55
2022/01/21 01:07:55;;;;;;;11.50;7.13;;;4.90;99.90;;;;;;5032816;28;20484;-61
2022/01/21 01:10:39;;;;;;;11.57;6.50;;;4.90;98.50;;;;;;5033054;28;20044;-57
2022/01/21 01:21:23;;;;;;;5.82;3.20;;;4.50;97.00;;;;;;5032981;28;20499;-56
2022/01/21 01:29:11;;;;;;;32.28;20.15;;;4.60;97.20;;;;;;5033207;28;20491;-55
2022/01/21 01:31:37;;;;;;;38.25;20.85;;;4.40;99.10;;;;;;5035702;28;20026;-53
2022/01/21 01:34:04;;;;;;;24.55;14.93;;;4.30;99.90;;;;;;5036609;28;20460;-60
2022/01/21 01:36:30;;;;;;;25.73;15.02;;;4.00;99.90;;;;;;5036314;28;20033;-55
2022/01/21 01:39:07;;;;;;;22.50;13.43;;;3.80;99.90;;;;;;5036495;28;20026;-57
2022/01/21 01:41:56;;;;;;;18.40;11.80;;;3.60;99.90;;;;;;5036501;28;20044;-58
2022/01/21 01:49:51;;;;;;;19.05;11.80;;;3.90;99.90;;;;;;5036480;28;20083;-50
2022/01/21 01:52:18;;;;;;;22.50;12.30;;;4.00;99.90;;;;;;5036140;28;20025;-54
2022/01/21 01:54:48;;;;;;;42.17;21.98;;;4.10;99.90;;;;;;5036170;28;20018;-59
2022/01/21 01:57:14;;;;;;;33.35;18.30;;;4.00;99.90;;;;;;5036209;28;20026;-50
2022/01/21 01:59:40;;;;;;;31.35;16.92;;;4.00;99.90;;;;;;5036088;28;20014;-55
2022/01/21 02:02:14;;;;;;;25.70;15.10;;;4.00;99.90;;;;;;5036165;28;20087;-62
2022/01/21 02:04:42;;;;;;;21.02;12.35;;;3.90;99.90;;;;;;5035855;28;20075;-60
2022/01/21 02:07:08;;;;;;;16.67;10.18;;;3.80;99.90;;;;;;5035938;28;20025;-50
2022/01/21 02:09:35;;;;;;;12.35;7.88;;;3.80;99.90;;;;;;5035874;28;20045;-58
2022/01/21 02:12:02;;;;;;;15.77;10.18;;;3.90;99.90;;;;;;5036068;28;20451;-54
2022/01/21 02:14:34;;;;;;;17.80;10.05;;;4.10;99.90;;;;;;5035823;28;20060;-58
2022/01/21 02:22:17;;;;;;;13.27;7.95;;;3.80;99.90;;;;;;5035600;28;20068;-59
2022/01/21 02:27:15;;;;;;;14.30;9.38;;;3.90;99.90;;;;;;5035616;28;20021;-55
2022/01/21 02:32:13;;;;;;;23.35;12.48;;;4.20;99.90;;;;;;5035851;28;20117;-61
2022/01/21 02:34:40;;;;;;;24.02;15.13;;;4.00;99.90;;;;;;5035351;28;20025;-56
2022/01/21 02:37:05;;;;;;;21.50;14.20;;;4.00;99.90;;;;;;5034185;28;20025;-55
2022/01/21 02:39:31;;;;;;;20.23;13.32;;;4.00;99.90;;;;;;5035324;28;20396;-55
2022/01/21 02:41:57;;;;;;;19.40;11.25;;;3.90;99.90;;;;;;5034694;28;20115;-54
2022/01/21 02:44:24;;;;;;;15.00;9.90;;;4.00;99.90;;;;;;5035232;28;20133;-60
2022/01/21 02:46:57;;;;;;;14.27;9.18;;;4.10;99.90;;;;;;5035507;28;20036;-60
2022/01/21 02:49:22;;;;;;;16.08;9.70;;;4.10;99.90;;;;;;5035344;28;20025;-56
2022/01/21 02:51:49;;;;;;;13.18;8.98;;;4.20;99.90;;;;;;5034999;28;20059;-56
2022/01/21 02:54:15;;;;;;;20.08;12.73;;;4.20;99.90;;;;;;5035158;28;20029;-58
2022/01/21 02:56:40;;;;;;;12.85;8.73;;;4.20;99.90;;;;;;5035040;28;20033;-57
2022/01/21 02:59:08;;;;;;;10.63;7.75;;;4.20;99.90;;;;;;5034893;28;20048;-54
2022/01/21 03:01:36;;;;;;;18.98;11.02;;;4.20;99.90;;;;;;5034901;28;20518;-58
2022/01/21 03:04:04;;;;;;;15.90;10.20;;;4.20;99.90;;;;;;5034772;28;20021;-55
2022/01/21 03:06:30;;;;;;;20.58;12.90;;;4.20;99.90;;;;;;5034723;28;20017;-52
2022/01/21 03:08:57;;;;;;;19.27;10.73;;;4.30;99.90;;;;;;5035082;28;20025;-59
2022/01/21 03:11:24;;;;;;;18.38;10.13;;;4.20;99.90;;;;;;5034887;28;20531;-60
2022/01/21 03:13:50;;;;;;;19.95;11.00;;;4.20;99.90;;;;;;5034959;28;20052;-59
2022/01/21 03:16:17;;;;;;;16.23;10.82;;;4.30;99.90;;;;;;5034807;28;20120;-55
2022/01/21 03:18:42;;;;;;;14.05;8.82;;;4.30;99.90;;;;;;5034509;28;20018;-58
2022/01/21 03:21:15;;;;;;;20.73;12.02;;;4.30;99.90;;;;;;5034375;28;20029;-56
2022/01/21 03:23:41;;;;;;;20.35;12.63;;;4.30;99.90;;;;;;5034545;28;20033;-58
2022/01/21 03:26:07;;;;;;;18.90;11.38;;;4.00;99.90;;;;;;5034501;28;20017;-59
2022/01/21 03:28:33;;;;;;;16.92;10.27;;;3.80;99.90;;;;;;5034332;28;20021;-57
2022/01/21 03:30:58;;;;;;;22.45;12.45;;;3.70;99.90;;;;;;5034314;28;20084;-59
2022/01/21 03:33:25;;;;;;;27.33;14.70;;;3.50;99.90;;;;;;5034302;28;20014;-54
2022/01/21 03:35:53;;;;;;;31.33;16.05;;;3.40;99.90;;;;;;5034193;28;20026;-56
2022/01/21 03:38:20;;;;;;;23.45;13.38;;;3.30;99.90;;;;;;5034341;28;20366;-52
2022/01/21 03:40:46;;;;;;;34.67;18.15;;;3.30;99.90;;;;;;5034063;28;20029;-56
2022/01/21 03:43:12;;;;;;;34.45;19.25;;;3.20;99.90;;;;;;5034399;28;20546;-57
2022/01/21 03:45:39;;;;;;;28.00;15.48;;;3.20;99.90;;;;;;5034099;28;20467;-56
2022/01/21 03:48:05;;;;;;;25.73;13.75;;;3.20;99.90;;;;;;5033934;28;20021;-56
2022/01/21 03:50:32;;;;;;;22.27;13.23;;;3.20;99.90;;;;;;5034002;28;20022;-56
2022/01/21 03:53:02;;;;;;;25.60;15.05;;;3.30;99.90;;;;;;5034308;28;20098;-56
2022/01/21 03:55:30;;;;;;;27.00;16.60;;;3.30;99.90;;;;;;5033209;28;20025;-56
2022/01/21 03:57:56;;;;;;;21.65;13.27;;;3.20;99.90;;;;;;5033866;28;20049;-54
2022/01/21 04:00:27;;;;;;;25.45;14.50;;;3.10;99.90;;;;;;5033950;28;20022;-57
2022/01/21 04:02:53;;;;;;;18.70;11.57;;;3.10;99.90;;;;;;5033742;28;20384;-58
2022/01/21 04:05:19;;;;;;;14.57;9.30;;;3.10;99.90;;;;;;5033733;28;20060;-59
2022/01/21 04:07:45;;;;;;;16.23;10.07;;;3.30;99.90;;;;;;5033864;28;20030;-54
2022/01/21 04:10:11;;;;;;;14.55;8.63;;;3.30;99.90;;;;;;5033715;28;20022;-51
2022/01/21 04:12:37;;;;;;;12.13;7.38;;;3.40;99.90;;;;;;5033627;28;20030;-60
2022/01/21 04:15:04;;;;;;;12.68;7.32;;;3.50;99.90;;;;;;5033477;28;20079;-57
2022/01/21 04:17:30;;;;;;;13.85;9.18;;;3.50;99.90;;;;;;5033715;28;20361;-54
2022/01/21 04:19:56;;;;;;;29.73;15.85;;;3.70;99.90;;;;;;5033759;28;20029;-59
2022/01/21 04:22:22;;;;;;;25.35;13.98;;;3.70;99.90;;;;;;5033428;28;20036;-56
2022/01/21 04:24:49;;;;;;;28.50;17.00;;;3.50;99.90;;;;;;5033403;28;20099;-53
2022/01/21 04:27:18;;;;;;;22.08;13.77;;;3.30;99.90;;;;;;5033502;28;20068;-56
2022/01/21 04:29:45;;;;;;;30.85;15.65;;;3.30;99.90;;;;;;5033190;28;20029;-53
2022/01/21 04:32:11;;;;;;;26.00;14.15;;;3.20;99.90;;;;;;5033384;28;20029;-56
2022/01/21 04:34:37;;;;;;;23.08;11.77;;;3.20;99.90;;;;;;5033867;28;20025;-59
2022/01/21 04:37:08;;;;;;;20.35;11.98;;;3.30;99.90;;;;;;5033545;28;20030;-52
2022/01/21 04:39:39;;;;;;;21.75;12.98;;;3.40;99.90;;;;;;5033513;28;20052;-58
2022/01/21 04:47:28;;;;;;;20.80;12.40;;;3.40;99.90;;;;;;5033390;28;20024;-58
2022/01/21 04:49:54;;;;;;;21.75;11.35;;;3.50;99.90;;;;;;5033159;28;20022;-60
2022/01/21 04:52:21;;;;;;;22.52;12.45;;;3.50;99.90;;;;;;5033145;28;20395;-57
2022/01/21 04:54:47;;;;;;;27.30;14.57;;;3.50;99.90;;;;;;5033041;28;20021;-61
2022/01/21 04:57:12;;;;;;;27.55;15.60;;;3.60;99.90;;;;;;5033049;28;20029;-56
2022/01/21 04:59:40;;;;;;;57.92;28.75;;;3.60;99.90;;;;;;5032895;28;20022;-61
2022/01/21 05:02:06;;;;;;;64.65;33.17;;;3.60;99.90;;;;;;5032933;28;20107;-57
2022/01/21 05:04:33;;;;;;;69.43;33.10;;;3.50;99.90;;;;;;5033519;28;20025;-60
2022/01/21 05:07:01;;;;;;;80.82;42.00;;;3.50;99.90;;;;;;5036599;28;20480;-58
2022/01/21 05:09:31;;;;;;;88.65;42.58;;;3.40;99.90;;;;;;5037230;28;20040;-57
2022/01/21 05:11:59;;;;;;;71.90;35.42;;;3.40;99.90;;;;;;5037029;28;20036;-61
2022/01/21 05:14:45;;;;;;;107.72;52.10;;;3.50;99.90;;;;;;5036783;28;20025;-55
2022/01/21 05:17:12;;;;;;;107.53;55.92;;;3.50;99.90;;;;;;5037076;28;20025;-59
2022/01/21 05:19:38;;;;;;;130.55;67.60;;;3.30;99.90;;;;;;5036907;28;20053;-58
2022/01/21 05:22:05;;;;;;;97.00;49.92;;;3.10;99.90;;;;;;5036976;28;20391;-51
2022/01/21 05:24:31;;;;;;;80.93;45.65;;;3.10;99.90;;;;;;5036674;28;20072;-60
2022/01/21 05:26:58;;;;;;;93.78;49.63;;;3.30;99.90;;;;;;5036819;28;20487;-60
2022/01/21 05:29:29;;;;;;;100.43;53.25;;;3.40;99.90;;;;;;5036570;28;20048;-56
2022/01/21 05:31:56;;;;;;;85.75;49.65;;;3.30;99.90;;;;;;5036826;28;20026;-54
2022/01/21 05:34:22;;;;;;;70.40;40.80;;;3.20;99.90;;;;;;5036667;28;20091;-58
2022/01/21 05:36:48;;;;;;;62.67;36.20;;;3.30;99.90;;;;;;5036503;28;20467;-59
2022/01/21 05:39:16;;;;;;;70.45;38.95;;;3.40;99.90;;;;;;5036826;28;20033;-61
2022/01/21 05:41:50;;;;;;;77.38;39.53;;;3.40;99.90;;;;;;5036464;28;20057;-60
2022/01/21 05:46:57;;;;;;;89.22;45.80;;;3.40;99.90;;;;;;5036454;28;20117;-54
2022/01/21 05:49:26;;;;;;;73.90;39.80;;;3.30;99.90;;;;;;5036293;28;20022;-61
2022/01/21 05:51:54;;;;;;;63.22;34.72;;;3.30;99.90;;;;;;5036536;28;20368;-59
2022/01/21 05:54:25;;;;;;;48.65;29.27;;;3.30;99.90;;;;;;5036185;28;20026;-56
2022/01/21 05:56:51;;;;;;;53.03;28.02;;;3.40;99.90;;;;;;5035882;28;20022;-56
2022/01/21 05:59:17;;;;;;;79.93;37.88;;;3.40;99.90;;;;;;5036087;28;20041;-55
2022/01/21 06:01:43;;;;;;;93.70;45.38;;;3.50;99.90;;;;;;5035818;28;20030;-60
2022/01/21 06:04:09;;;;;;;78.88;38.70;;;3.40;99.90;;;;;;5036038;28;20027;-56
2022/01/21 06:06:35;;;;;;;90.72;43.92;;;3.30;99.90;;;;;;5036046;28;20026;-62
2022/01/21 06:09:02;;;;;;;83.50;43.75;;;3.20;99.90;;;;;;5035984;28;20380;-60
2022/01/21 06:11:28;;;;;;;72.00;39.65;;;3.10;99.90;;;;;;5039638;28;20498;-59
2022/01/21 06:13:54;;;;;;;97.15;46.72;;;3.10;99.90;;;;;;5045957;28;20122;-58
2022/01/21 06:16:20;;;;;;;82.82;43.08;;;3.10;99.90;;;;;;5046597;28;20025;-59
2022/01/21 06:18:47;;;;;;;124.07;58.97;;;3.20;99.90;;;;;;5034890;28;20040;-61
2022/01/21 06:21:13;;;;;;;90.75;45.65;;;3.20;99.90;;;;;;5045091;28;20032;-62
2022/01/21 06:23:39;;;;;;;86.28;42.88;;;3.20;99.90;;;;;;5033721;28;20097;-54
2022/01/21 06:26:04;;;;;;;116.47;57.83;;;3.30;99.90;;;;;;5033207;28;20153;-55
2022/01/21 06:28:30;;;;;;;100.05;49.42;;;3.40;99.90;;;;;;5033631;28;20033;-55
2022/01/21 06:30:56;;;;;;;79.47;41.25;;;3.30;99.90;;;;;;5039602;28;20017;-59
2022/01/21 06:33:22;;;;;;;94.15;43.60;;;3.40;99.90;;;;;;5054845;28;20044;-56
2022/01/21 06:35:51;;;;;;;92.38;40.92;;;3.30;99.90;;;;;;5033708;28;20029;-53
2022/01/21 06:38:19;;;;;;;85.45;39.58;;;3.20;99.90;;;;;;5036000;28;20032;-57
2022/01/21 06:40:45;;;;;;;77.95;35.65;;;3.20;99.90;;;;;;5044130;28;20023;-56
2022/01/21 06:43:11;;;;;;;95.60;47.42;;;3.10;99.90;;;;;;5041098;28;20501;-57
2022/01/21 06:45:36;;;;;;;86.82;43.35;;;3.20;99.90;;;;;;5034256;28;20021;-58
2022/01/21 06:48:03;;;;;;;82.80;43.83;;;3.20;99.90;;;;;;5033708;28;20083;-54
2022/01/21 06:50:37;;;;;;;62.10;31.98;;;3.30;99.90;;;;;;5038164;28;20025;-60
2022/01/21 06:53:03;;;;;;;80.90;41.35;;;3.30;99.90;;;;;;5041451;28;20029;-58
2022/01/21 06:55:29;;;;;;;56.30;31.27;;;3.40;99.90;;;;;;5038167;28;20499;-54
2022/01/21 06:57:55;;;;;;;57.60;31.17;;;3.50;99.90;;;;;;5043340;28;20021;-56
2022/01/21 07:00:21;;;;;;;74.28;39.20;;;3.60;99.90;;;;;;5035070;28;20035;-53
2022/01/21 07:02:48;;;;;;;68.72;35.20;;;3.70;99.90;;;;;;5033035;28;20549;-54
2022/01/21 07:05:14;;;;;;;66.22;33.78;;;3.60;99.90;;;;;;5033833;28;20032;-52
2022/01/21 07:07:40;;;;;;;66.25;34.05;;;3.60;99.90;;;;;;5033534;28;20033;-60
2022/01/21 07:10:10;;;;;;;94.45;47.22;;;3.70;99.90;;;;;;5034190;28;20385;-60
2022/01/21 07:12:36;;;;;;;82.93;43.15;;;3.60;99.90;;;;;;5034339;28;20459;-60
2022/01/21 07:15:03;;;;;;;79.85;38.70;;;3.50;99.90;;;;;;5051338;28;20049;-55
2022/01/21 07:17:28;;;;;;;81.38;39.92;;;3.50;99.90;;;;;;5053063;28;20045;-53
2022/01/21 07:19:54;;;;;;;73.97;36.78;;;3.60;99.90;;;;;;5033049;28;20092;-57
2022/01/21 07:22:20;;;;;;;68.35;36.20;;;3.80;99.90;;;;;;5032478;28;20032;-57
2022/01/21 07:24:46;;;;;;;61.90;33.80;;;3.90;99.90;;;;;;5036040;28;20073;-59
2022/01/21 07:27:11;;;;;;;57.35;31.00;;;4.00;99.90;;;;;;5052945;28;20025;-56
2022/01/21 07:29:37;;;;;;;50.88;28.48;;;4.20;99.90;;;;;;5051013;28;20425;-53
2022/01/21 07:32:03;;;;;;;51.28;27.48;;;4.10;99.90;;;;;;5050948;28;20032;-59
2022/01/21 07:34:29;;;;;;;47.05;25.75;;;4.20;99.90;;;;;;5049230;28;20021;-53
2022/01/21 07:36:56;;;;;;;43.05;25.40;;;4.30;99.90;;;;;;5051780;28;20608;-53
2022/01/21 07:39:22;;;;;;;38.70;21.02;;;4.40;99.90;;;;;;5050451;28;20037;-60
2022/01/21 07:41:49;;;;;;;31.05;17.00;;;4.30;99.90;;;;;;5036671;28;20033;-50
2022/01/21 07:44:15;;;;;;;27.80;15.20;;;4.30;99.90;;;;;;5032288;28;20382;-52
2022/01/21 07:46:43;;;;;;;21.55;11.80;;;4.40;99.90;;;;;;5052248;28;20024;-59
2022/01/21 07:49:09;;;;;;;18.50;10.07;;;4.60;99.50;;;;;;5052221;28;20111;-50
2022/01/21 07:51:36;;;;;;;14.13;8.13;;;4.80;96.90;;;;;;5043487;28;20029;-58
2022/01/21 07:54:03;;;;;;;14.63;7.70;;;4.90;94.80;;;;;;5036020;28;20029;-59
2022/01/21 07:56:29;;;;;;;13.50;7.28;;;5.10;95.80;;;;;;5033830;28;20499;-60
2022/01/21 07:58:55;;;;;;;12.02;6.47;;;5.40;92.20;;;;;;5036326;28;20029;-56
2022/01/21 08:01:22;;;;;;;10.40;5.82;;;5.50;91.30;;;;;;5034043;28;20036;-60
2022/01/21 08:03:47;;;;;;;10.02;5.80;;;5.50;88.20;;;;;;5033884;28;20074;-55
2022/01/21 08:06:13;;;;;;;10.68;5.20;;;5.30;90.00;;;;;;5038551;28;20032;-58
2022/01/21 08:08:39;;;;;;;8.15;4.68;;;5.20;90.40;;;;;;5048522;28;20037;-54
2022/01/21 08:11:05;;;;;;;6.95;4.15;;;5.10;89.40;;;;;;5041559;28;20029;-56
2022/01/21 08:13:30;;;;;;;7.60;4.00;;;5.00;91.10;;;;;;5033700;28;20030;-59
2022/01/21 08:15:59;;;;;;;8.48;4.93;;;4.90;91.60;;;;;;5032764;28;20080;-53
2022/01/21 08:18:24;;;;;;;7.32;3.92;;;5.00;89.10;;;;;;5034534;28;20017;-57
2022/01/21 08:20:50;;;;;;;6.93;3.95;;;4.90;90.50;;;;;;5034152;28;20656;-56
2022/01/21 08:23:16;;;;;;;6.47;3.92;;;4.90;92.00;;;;;;5037034;28;20037;-57
2022/01/21 08:25:42;;;;;;;7.72;4.00;;;5.00;90.60;;;;;;5035450;28;20049;-52
2022/01/21 08:28:08;;;;;;;6.05;4.05;;;5.00;91.60;;;;;;5053280;28;20032;-61
2022/01/21 08:30:35;;;;;;;6.80;4.05;;;5.10;88.20;;;;;;5053513;28;20024;-57
2022/01/21 08:33:01;;;;;;;6.25;3.92;;;5.00;90.60;;;;;;5039087;28;20483;-60
2022/01/21 08:35:27;;;;;;;5.30;3.42;;;5.10;90.30;;;;;;5047165;28;20055;-56
2022/01/21 08:37:53;;;;;;;6.45;4.07;;;5.20;90.10;;;;;;5038014;28;20464;-61
2022/01/21 08:40:23;;;;;;;8.25;4.50;;;5.20;84.70;;;;;;5032473;28;20026;-57
2022/01/21 08:42:49;;;;;;;11.85;4.68;;;5.40;83.90;;;;;;5033202;28;20414;-54
2022/01/21 08:45:16;;;;;;;8.43;4.32;;;5.40;79.60;;;;;;5033346;28;20108;-58
2022/01/21 08:47:42;;;;;;;7.32;4.25;;;5.40;76.70;;;;;;5033125;28;20025;-54
2022/01/21 08:50:14;;;;;;;7.05;3.97;;;5.30;73.20;;;;;;5032449;28;20076;-57
2022/01/21 08:52:41;;;;;;;5.65;3.33;;;5.10;73.70;;;;;;5038968;28;20100;-54
2022/01/21 08:55:18;;;;;;;6.93;3.78;;;4.90;75.60;;;;;;5036784;28;20040;-55
2022/01/21 08:57:46;;;;;;;6.15;3.35;;;4.70;75.90;;;;;;5042045;28;20079;-60
2022/01/21 09:00:16;;;;;;;8.23;4.45;;;4.70;75.50;;;;;;5032929;28;20025;-55
2022/01/21 09:02:42;;;;;;;9.93;4.40;;;4.70;75.80;;;;;;5032397;28;20076;-53
2022/01/21 09:05:08;;;;;;;6.93;4.18;;;4.70;75.10;;;;;;5032753;28;20049;-58
2022/01/21 09:07:34;;;;;;;7.78;4.00;;;4.70;76.90;;;;;;5033052;28;20022;-55
2022/01/21 09:09:59;;;;;;;5.65;3.00;;;4.60;77.00;;;;;;5032351;28;20026;-55
2022/01/21 09:12:25;;;;;;;6.10;3.00;;;4.60;75.00;;;;;;5031060;28;20488;-61
2022/01/21 09:14:51;;;;;;;4.95;2.85;;;4.60;73.80;;;;;;5031078;28;20017;-55
2022/01/21 09:17:18;;;;;;;5.97;2.90;;;4.60;73.70;;;;;;5031985;28;20014;-57
2022/01/21 09:19:43;;;;;;;7.70;3.92;;;4.70;72.30;;;;;;5033026;28;20026;-54
2022/01/21 09:22:09;;;;;;;6.65;4.15;;;4.70;69.80;;;;;;5032733;28;20080;-56
2022/01/21 09:24:35;;;;;;;5.97;4.20;;;4.70;71.20;;;;;;5032807;28;20049;-56
2022/01/21 09:27:04;;;;;;;9.00;4.88;;;4.80;71.30;;;;;;5032786;28;20029;-57
2022/01/21 09:29:31;;;;;;;12.13;7.15;;;4.80;68.90;;;;;;5032463;28;20025;-58
2022/01/21 09:31:57;;;;;;;12.05;6.72;;;4.80;68.80;;;;;;5034023;28;20128;-61
2022/01/21 09:34:25;;;;;;;13.98;8.00;;;4.60;71.20;;;;;;5029949;28;20017;-58
2022/01/21 09:36:56;;;;;;;10.57;6.40;;;4.70;68.50;;;;;;5031558;28;20021;-58
2022/01/21 09:39:22;;;;;;;10.27;5.72;;;4.70;66.80;;;;;;5040262;28;20063;-59
2022/01/21 09:41:49;;;;;;;7.65;4.30;;;4.60;64.80;;;;;;5034965;28;20479;-56
2022/01/21 09:44:19;;;;;;;7.55;4.50;;;4.60;64.50;;;;;;5031672;28;20026;-58
2022/01/21 09:46:49;;;;;;;8.30;5.38;;;4.40;66.50;;;;;;5030517;28;20056;-58
2022/01/21 09:49:27;;;;;;;12.63;6.70;;;4.40;68.40;;;;;;5030253;28;20484;-58
2022/01/21 09:52:00;;;;;;;12.68;7.70;;;4.40;66.90;;;;;;5031883;28;20045;-61
2022/01/21 09:54:29;;;;;;;15.07;8.43;;;4.30;69.90;;;;;;5032721;28;20079;-55
2022/01/21 09:56:56;;;;;;;12.15;7.15;;;4.20;69.60;;;;;;5049534;28;20448;-61
2022/01/21 09:59:26;;;;;;;15.38;8.70;;;4.10;70.50;;;;;;5054433;28;20047;-52
2022/01/21 10:02:02;;;;;;;14.88;8.98;;;4.30;69.80;;;;;;5055218;28;20079;-54
2022/01/21 10:04:31;;;;;;;20.20;10.32;;;4.40;69.20;;;;;;5055602;28;20113;-58
2022/01/21 10:07:00;;;;;;;29.50;12.73;;;4.50;70.90;;;;;;5055778;28;20092;-60
2022/01/21 10:09:26;;;;;;;27.58;12.68;;;4.50;70.90;;;;;;5055579;28;20021;-57
2022/01/21 10:11:54;;;;;;;31.30;14.23;;;4.50;67.30;;;;;;5055735;28;20487;-57
2022/01/21 10:14:28;;;;;;;26.23;12.20;;;4.60;67.70;;;;;;5055474;28;20020;-58
2022/01/21 10:16:56;;;;;;;47.60;18.98;;;4.70;68.80;;;;;;5054406;28;20094;-58
2022/01/21 10:19:48;;;;;;;43.10;18.88;;;4.70;71.30;;;;;;5053455;28;20460;-56
2022/01/21 10:22:19;;;;;;;36.83;17.55;;;4.90;71.30;;;;;;5053324;28;20124;-63
2022/01/21 10:24:59;;;;;;;38.20;18.20;;;5.10;68.90;;;;;;5053178;28;20056;-59
2022/01/21 10:27:29;;;;;;;26.05;13.52;;;5.10;69.80;;;;;;5054610;28;20021;-54
2022/01/21 10:29:56;;;;;;;27.83;14.85;;;4.90;73.10;;;;;;5055355;28;20071;-58
2022/01/21 10:32:55;;;;;;;28.75;14.90;;;4.80;76.30;;;;;;5054985;28;20017;-58
2022/01/21 10:35:26;;;;;;;33.30;17.60;;;4.90;73.10;;;;;;5054061;28;20029;-56
2022/01/21 10:37:52;;;;;;;27.02;12.85;;;5.10;71.10;;;;;;5054999;28;20036;-55
2022/01/21 10:40:21;;;;;;;26.65;14.00;;;5.10;69.00;;;;;;5045792;28;20369;-59
2022/01/21 10:42:48;;;;;;;26.25;13.07;;;4.90;70.60;;;;;;5043584;28;20430;-58
2022/01/21 10:45:14;;;;;;;27.25;13.45;;;5.00;69.40;;;;;;5043335;28;20078;-57
2022/01/21 10:47:50;;;;;;;21.90;12.27;;;4.90;69.60;;;;;;5054710;28;20033;-55
2022/01/21 10:50:20;;;;;;;19.38;11.40;;;5.10;65.30;;;;;;5055109;28;20025;-55
2022/01/21 10:52:51;;;;;;;19.02;10.45;;;4.80;66.30;;;;;;5054771;28;20163;-62
2022/01/21 10:55:38;;;;;;;20.95;11.73;;;4.80;72.90;;;;;;5053674;28;20032;-61
2022/01/21 10:58:11;;;;;;;21.38;12.27;;;4.90;74.10;;;;;;5052865;28;20024;-56
2022/01/21 11:00:38;;;;;;;25.02;14.23;;;5.00;71.10;;;;;;5053233;28;20025;-58
2022/01/21 11:03:12;;;;;;;24.55;12.93;;;5.30;67.10;;;;;;5052556;28;20503;-51
2022/01/21 11:05:43;;;;;;;21.88;11.50;;;5.30;65.60;;;;;;5053324;28;20017;-59
2022/01/21 11:08:10;;;;;;;21.55;10.75;;;5.40;66.10;;;;;;5053483;28;20021;-59
2022/01/21 11:10:50;;;;;;;19.15;10.07;;;5.50;64.00;;;;;;5054295;28;20051;-58
2022/01/21 11:13:18;;;;;;;43.00;17.17;;;5.50;64.70;;;;;;5054974;28;20099;-56
2022/01/21 11:15:57;;;;;;;23.83;13.15;;;5.50;62.10;;;;;;5054321;28;20475;-59
2022/01/21 11:18:24;;;;;;;29.65;14.18;;;5.40;64.10;;;;;;5054871;28;20032;-59
2022/01/21 11:20:59;;;;;;;36.28;17.30;;;5.50;61.70;;;;;;5054459;28;20056;-58
2022/01/21 11:23:27;;;;;;;29.98;15.35;;;5.80;61.80;;;;;;5054279;28;20033;-58
2022/01/21 11:26:00;;;;;;;33.83;15.63;;;6.20;62.20;;;;;;5053925;28;20107;-59
2022/01/21 11:28:36;;;;;;;31.42;16.73;;;6.60;63.90;;;;;;5054247;28;20055;-53
2022/01/21 11:31:02;;;;;;;29.08;16.90;;;6.80;62.70;;;;;;5054180;28;20031;-54
2022/01/21 11:33:28;;;;;;;24.92;12.70;;;7.00;64.60;;;;;;5053785;28;20475;-60
2022/01/21 11:35:54;;;;;;;28.67;14.95;;;7.20;58.40;;;;;;5054150;28;20025;-53
2022/01/21 11:38:23;;;;;;;20.40;12.23;;;7.40;58.60;;;;;;5054012;28;20025;-57
2022/01/21 11:40:50;;;;;;;19.52;11.90;;;7.50;57.50;;;;;;5053568;28;20029;-56
2022/01/21 11:43:17;;;;;;;16.55;10.27;;;7.50;57.30;;;;;;5054012;28;20021;-58
2022/01/21 11:51:20;;;;;;;9.02;4.90;;;7.70;48.40;;;;;;5054006;28;20029;-60
2022/01/21 11:53:49;;;;;;;5.88;4.30;;;7.40;51.40;;;;;;5053880;28;20020;-60
2022/01/21 11:56:48;;;;;;;10.30;5.47;;;7.20;52.30;;;;;;5053780;28;20499;-55
2022/01/21 12:01:57;;;;;;;11.02;5.30;;;6.30;54.00;;;;;;5053951;28;20033;-59
2022/01/21 12:04:31;;;;;;;9.70;4.35;;;6.50;54.30;;;;;;5053341;28;20071;-55
2022/01/21 12:06:58;;;;;;;9.45;5.18;;;6.70;52.30;;;;;;5053454;28;20043;-61
2022/01/21 12:09:59;;;;;;;7.05;4.35;;;6.80;52.20;;;;;;5053483;28;20021;-60
2022/01/21 12:12:49;;;;;;;7.07;3.90;;;7.20;50.20;;;;;;5040089;28;20064;-61
2022/01/21 12:19:07;;;;;;;2.65;1.50;;;7.50;45.70;;;;;;5032385;28;20173;-61
2022/01/21 12:21:41;;;;;;;4.78;2.42;;;7.50;46.30;;;;;;5032830;28;20037;-58
2022/01/21 12:24:09;;;;;;;3.92;1.85;;;7.60;44.00;;;;;;5032326;28;20045;-56
2022/01/21 12:26:36;;;;;;;2.97;1.73;;;7.60;40.70;;;;;;5030394;28;20107;-61
2022/01/21 12:29:02;;;;;;;4.70;2.10;;;7.60;44.30;;;;;;5030057;28;20029;-57
2022/01/21 12:31:46;;;;;;;4.40;2.08;;;7.70;43.70;;;;;;5031106;28;20022;-50
2022/01/21 12:34:15;;;;;;;3.05;1.35;;;7.70;41.90;;;;;;5030681;28;20022;-60
2022/01/21 12:36:50;;;;;;;4.32;1.65;;;7.60;43.00;;;;;;5032787;28;20487;-51
2022/01/21 12:39:51;;;;;;;6.72;1.00;;;7.80;41.90;;;;;;5030907;28;20026;-54
2022/01/21 12:42:35;;;;;;;3.00;1.30;;;7.50;42.50;;;;;;5029741;28;20041;-57
2022/01/21 12:45:03;;;;;;;2.53;1.48;;;7.60;44.00;;;;;;5032098;28;20112;-56
2022/01/21 12:47:43;;;;;;;4.20;1.48;;;7.90;43.60;;;;;;5031200;28;20028;-53
2022/01/21 12:50:46;;;;;;;2.75;1.80;;;8.20;42.20;;;;;;5032464;28;20018;-54
2022/01/21 12:53:25;;;;;;;4.55;2.20;;;8.50;40.10;;;;;;5032892;28;20476;-56
2022/01/21 12:56:03;;;;;;;4.72;2.13;;;8.90;41.40;;;;;;5033090;28;20468;-56
2022/01/21 12:58:41;;;;;;;2.78;1.95;;;8.80;41.00;;;;;;5033025;28;20072;-57
2022/01/21 13:01:10;;;;;;;4.80;2.22;;;8.70;40.70;;;;;;5032996;28;20141;-60
2022/01/21 13:04:01;;;;;;;3.45;2.10;;;8.60;41.90;;;;;;5033398;28;20106;-52
2022/01/21 13:07:04;;;;;;;4.43;2.10;;;8.80;42.30;;;;;;5033277;28;20100;-56
2022/01/21 13:09:37;;;;;;;15.82;9.32;;;8.90;40.90;;;;;;5032878;28;20495;-53
2022/01/21 13:12:09;;;;;;;7.05;4.03;;;8.90;38.70;;;;;;5032878;28;20036;-56
2022/01/21 13:14:36;;;;;;;4.77;2.43;;;8.50;39.80;;;;;;5033246;28;20360;-61
2022/01/21 13:17:09;;;;;;;4.70;2.60;;;8.70;40.10;;;;;;5033266;28;20320;-57
2022/01/21 13:19:56;;;;;;;4.40;2.60;;;8.90;38.70;;;;;;5033018;28;20036;-54
2022/01/21 13:22:30;;;;;;;5.45;2.33;;;8.80;40.90;;;;;;5032806;28;20076;-54
2022/01/21 13:25:03;;;;;;;4.07;1.98;;;9.00;39.00;;;;;;5032990;28;20052;-53
2022/01/21 13:27:30;;;;;;;4.78;1.90;;;8.80;41.10;;;;;;5035484;28;20078;-56
2022/01/21 13:30:02;;;;;;;8.10;2.72;;;8.80;41.20;;;;;;5037059;28;20032;-55
2022/01/21 13:32:28;;;;;;;3.55;2.20;;;8.90;38.20;;;;;;5036748;28;20056;-55
2022/01/21 13:35:10;;;;;;;4.57;1.80;;;8.70;37.70;;;;;;5036807;28;20056;-56
2022/01/21 13:37:40;;;;;;;3.15;1.92;;;8.80;38.80;;;;;;5036641;28;20025;-60
2022/01/21 13:40:08;;;;;;;2.95;1.90;;;8.80;39.80;;;;;;5036420;28;20392;-54
2022/01/21 13:42:36;;;;;;;4.20;1.33;;;9.20;39.30;;;;;;5036524;28;20076;-52
2022/01/21 13:45:08;;;;;;;4.25;1.77;;;9.30;37.00;;;;;;5036447;28;20021;-55
2022/01/21 13:47:40;;;;;;;3.53;1.50;;;9.20;36.00;;;;;;5036402;28;20040;-57
2022/01/21 13:50:17;;;;;;;3.88;2.17;;;9.30;37.40;;;;;;5036383;28;20026;-54
2022/01/21 13:52:48;;;;;;;4.40;1.52;;;9.10;36.40;;;;;;5036240;28;20053;-59